Time;durP1;ratioP1;P1;durP2;ratioP2;P2;SDS_P1;SDS_P2;PMS_P1;PMS_P2;Temp;Humidity;BMP_temperature;BMP_pressure;BME280_temperature;BME280_humidity;BME280_pressure;Samples;Min_cycle;Max_cycle;Signal;HPM_P1;HPM_P2
2022/06/07 00:01:37;;;;;;;0.83;0.80;;;20.20;99.90;;;20.44;51.37;100987.84;4934795;28;98444;-72
2022/06/07 00:04:04;;;;;;;0.90;0.80;;;20.20;99.90;;;20.44;51.48;100995.03;4907690;28;98874;-73
2022/06/07 00:06:30;;;;;;;1.60;0.80;;;20.20;99.90;;;20.43;51.61;100994.19;4924461;28;99152;-72
2022/06/07 00:08:56;;;;;;;1.10;0.63;;;20.20;99.90;;;20.43;51.78;100983.47;4950839;28;97049;-72
2022/06/07 00:11:23;;;;;;;2.30;1.10;;;20.20;99.90;;;20.43;51.74;100983.47;4950691;28;117839;-72
2022/06/07 00:13:49;;;;;;;1.90;1.10;;;20.20;99.90;;;20.42;51.62;100981.75;4935562;28;98016;-72
2022/06/07 00:16:17;;;;;;;0.90;0.80;;;20.20;99.90;;;20.43;51.65;100983.47;4950592;28;97755;-72
2022/06/07 00:18:43;;;;;;;1.63;1.13;;;20.20;99.90;;;20.44;51.63;100984.31;4942044;28;97445;-72
2022/06/07 00:21:09;;;;;;;1.00;0.90;;;20.20;99.90;;;20.44;51.75;100974.47;4938638;28;97420;-72
2022/06/07 00:23:36;;;;;;;1.40;0.83;;;20.30;99.90;;;20.45;51.58;100981.53;4959716;28;97384;-71
2022/06/07 00:26:03;;;;;;;1.07;0.67;;;20.20;99.90;;;20.46;51.76;100985.06;4954461;28;98498;-71
2022/06/07 00:28:29;;;;;;;1.23;0.70;;;20.30;99.90;;;20.47;51.51;100968.03;4949314;28;97283;-72
2022/06/07 00:30:56;;;;;;;0.90;0.90;;;20.30;99.90;;;20.47;51.42;100970.69;4936857;28;96904;-72
2022/06/07 00:33:24;;;;;;;1.53;1.33;;;20.30;99.90;;;20.47;51.58;100968.88;4926155;28;101162;-72
2022/06/07 00:35:50;;;;;;;0.87;0.73;;;20.30;99.90;;;20.45;51.56;100970.81;4942068;28;98770;-72
2022/06/07 00:38:16;;;;;;;5.83;1.90;;;20.20;99.90;;;20.43;51.57;100972.75;4929162;28;96892;-72
2022/06/07 00:40:43;;;;;;;1.33;1.03;;;20.20;99.90;;;20.39;51.74;100976.56;4939424;28;97065;-71
2022/06/07 00:43:10;;;;;;;2.27;1.00;;;20.20;99.90;;;20.37;51.99;100975.81;4920867;28;98561;-72
2022/06/07 00:45:37;;;;;;;1.10;0.90;;;20.10;99.90;;;20.35;51.81;100969.72;4934561;28;97039;-72
2022/06/07 00:48:05;;;;;;;3.47;2.07;;;20.00;99.90;;;20.33;51.89;100966.28;4919788;28;96943;-72
2022/06/07 00:50:57;;;;;;;1.97;1.70;;;20.00;99.90;;;20.30;52.08;100971.88;4941231;28;101216;-72
2022/06/07 00:53:35;;;;;;;0.83;0.83;;;20.00;99.90;;;20.27;52.26;100966.75;4938569;28;103308;-72
2022/06/07 00:56:01;;;;;;;4.80;1.90;;;19.90;99.90;;;20.23;52.00;100967.91;4937526;28;97538;-74
2022/06/07 00:58:30;;;;;;;1.40;1.07;;;19.90;99.90;;;20.23;52.14;100970.59;4945330;28;98434;-72
2022/06/07 01:00:57;;;;;;;2.87;1.47;;;19.90;99.90;;;20.22;51.99;100966.19;4949822;28;96744;-72
2022/06/07 01:03:24;;;;;;;1.80;1.13;;;19.90;99.90;;;20.22;52.00;100968.88;4938099;28;100527;-72
2022/06/07 01:05:51;;;;;;;1.90;1.30;;;19.90;99.90;;;20.24;52.31;100972.28;4940103;28;97191;-72
2022/06/07 01:11:03;;;;;;;0.97;0.90;;;20.00;99.90;;;20.24;52.27;100966.09;4953648;28;98026;-72
2022/06/07 01:13:35;;;;;;;11.33;1.40;;;20.00;99.90;;;20.23;52.16;100975.94;4940751;28;97669;-72
2022/06/07 01:16:06;;;;;;;1.70;1.30;;;20.00;99.90;;;20.20;51.65;100976.16;4936687;28;100914;-72
2022/06/07 01:18:33;;;;;;;1.60;1.10;;;19.90;99.90;;;20.22;52.21;100968.88;4958741;28;101560;-72
2022/06/07 01:21:28;;;;;;;1.33;1.10;;;19.90;99.90;;;20.23;50.49;100975.94;4949704;28;96997;-72
2022/06/07 01:23:54;;;;;;;1.17;0.90;;;20.00;99.90;;;20.20;52.26;100968.13;4936688;28;97859;-72
2022/06/07 01:26:21;;;;;;;1.30;1.20;;;19.90;99.90;;;20.20;52.25;100965.44;4940051;28;96814;-72
2022/06/07 01:28:47;;;;;;;2.70;1.40;;;20.00;99.90;;;20.21;51.92;100972.53;4927186;28;100126;-72
2022/06/07 01:31:13;;;;;;;2.17;1.50;;;20.00;99.90;;;20.20;51.90;100970.81;4942774;28;96926;-72
2022/06/07 01:33:38;;;;;;;1.00;0.90;;;20.00;99.90;;;20.21;52.38;100972.53;4959237;28;107386;-72
2022/06/07 01:36:08;;;;;;;2.03;1.30;;;20.00;99.90;;;20.19;52.10;100969.09;4937470;28;97143;-72
2022/06/07 01:38:37;;;;;;;1.77;1.17;;;19.90;99.90;;;20.19;52.45;100969.09;4939285;28;96993;-72
2022/06/07 01:43:47;;;;;;;2.43;1.20;;;19.90;99.90;;;20.21;52.43;100975.19;4946368;28;97157;-72
2022/06/07 01:46:13;;;;;;;3.43;1.77;;;19.90;99.90;;;20.20;52.11;100970.81;4913039;28;98151;-71
2022/06/07 01:48:39;;;;;;;7.03;1.83;;;19.90;99.90;;;20.19;51.17;100964.59;4941075;28;96897;-71
2022/06/07 01:51:09;;;;;;;1.30;1.20;;;19.90;99.90;;;20.22;52.11;100963.53;4944122;28;96659;-72
2022/06/07 01:53:36;;;;;;;3.40;1.73;;;19.90;99.90;;;20.22;51.74;100968.88;4940897;28;97482;-72
2022/06/07 01:56:12;;;;;;;1.90;1.47;;;19.90;99.90;;;20.21;51.67;100967.16;4918821;28;100069;-72
2022/06/07 01:58:44;;;;;;;2.20;1.10;;;19.90;99.90;;;20.21;52.08;100957.31;4944667;28;97666;-72
2022/06/07 02:01:11;;;;;;;0.73;0.60;;;19.90;99.90;;;20.20;52.35;100960.94;4929320;28;97370;-72
2022/06/07 02:03:37;;;;;;;1.47;1.00;;;19.90;99.90;;;20.21;52.28;100959.13;4944320;28;97618;-72
2022/06/07 02:06:07;;;;;;;2.37;1.50;;;19.90;99.90;;;20.19;51.94;100955.72;4943718;28;97430;-73
2022/06/07 02:08:37;;;;;;;1.57;0.97;;;19.90;99.90;;;20.20;52.38;100944.88;4952420;28;96916;-72
2022/06/07 02:11:16;;;;;;;1.93;1.20;;;19.90;99.90;;;20.21;52.31;100951.09;4935863;28;97392;-72
2022/06/07 02:13:43;;;;;;;1.63;1.10;;;20.00;99.90;;;20.19;51.23;100950.34;4940100;28;102858;-72
2022/06/07 02:16:09;;;;;;;3.03;1.00;;;19.90;99.90;;;20.19;52.29;100936.97;4936221;28;97128;-72
2022/06/07 02:18:36;;;;;;;2.57;1.60;;;19.90;99.90;;;20.18;51.79;100945.97;4940660;28;97001;-72
2022/06/07 02:21:02;;;;;;;2.73;1.57;;;19.90;99.90;;;20.18;51.67;100929.88;4938469;28;97372;-73
2022/06/07 02:23:30;;;;;;;1.07;0.80;;;19.90;99.90;;;20.19;52.39;100934.28;4949629;28;97512;-72
2022/06/07 02:26:02;;;;;;;2.27;1.00;;;19.90;99.90;;;20.19;51.96;100932.47;4954792;28;97228;-74
2022/06/07 02:28:35;;;;;;;1.83;1.53;;;19.90;99.90;;;20.18;52.30;100935.25;4943977;28;98541;-72
2022/06/07 02:31:03;;;;;;;2.87;1.57;;;19.90;99.90;;;20.17;52.08;100933.53;4930989;28;96989;-72
2022/06/07 02:33:30;;;;;;;2.60;1.20;;;19.90;99.90;;;20.16;52.36;100939.88;4937946;28;97490;-72
2022/06/07 02:35:55;;;;;;;2.43;1.10;;;19.80;99.90;;;20.17;52.09;100933.53;4943364;28;97185;-72
2022/06/07 02:38:22;;;;;;;2.03;0.90;;;19.90;99.90;;;20.16;52.32;100929.16;4935951;28;96915;-72
2022/06/07 02:40:49;;;;;;;2.67;1.60;;;19.90;99.90;;;20.14;52.13;100933.75;4960009;28;96876;-72
2022/06/07 02:43:15;;;;;;;1.27;0.80;;;19.80;99.90;;;20.14;52.59;100933.75;4940342;28;97588;-72
2022/06/07 02:45:41;;;;;;;1.03;0.90;;;19.80;99.90;;;20.14;52.34;100944.47;4944240;28;97654;-72
2022/06/07 02:48:08;;;;;;;1.37;1.10;;;19.80;99.90;;;20.12;52.38;100931.19;4958244;28;103366;-72
2022/06/07 02:50:34;;;;;;;0.83;0.83;;;19.80;99.90;;;20.13;52.55;100926.69;4943978;28;96872;-72
2022/06/07 02:53:00;;;;;;;1.67;1.20;;;19.80;99.90;;;20.13;52.61;100921.34;4957808;28;97390;-73
2022/06/07 02:55:26;;;;;;;1.20;1.07;;;19.80;99.90;;;20.12;52.54;100930.34;4961042;28;97261;-72
2022/06/07 02:57:52;;;;;;;0.90;0.90;;;19.80;99.90;;;20.11;52.27;100936.66;4938273;28;98049;-72
2022/06/07 03:00:18;;;;;;;1.73;1.40;;;19.80;99.90;;;20.11;52.39;100936.66;4935160;28;97361;-72
2022/06/07 03:02:44;;;;;;;1.83;1.40;;;19.80;99.90;;;20.09;52.67;100930.53;4957354;28;96957;-72
2022/06/07 03:05:11;;;;;;;1.00;0.90;;;19.80;99.90;;;20.11;52.55;100934.00;4920924;28;99390;-72
2022/06/07 03:07:39;;;;;;;1.10;0.80;;;19.80;99.90;;;20.13;52.50;100932.06;4964634;28;97192;-72
2022/06/07 03:10:07;;;;;;;0.80;0.80;;;19.90;99.90;;;20.12;52.53;100925.84;4954455;28;96705;-72
2022/06/07 03:12:33;;;;;;;3.60;1.20;;;19.90;99.90;;;20.13;52.40;100938.25;4943841;28;97575;-72
2022/06/07 03:14:59;;;;;;;1.87;1.10;;;19.90;99.90;;;20.14;52.08;100933.75;4953191;28;97908;-72
2022/06/07 03:17:25;;;;;;;0.90;0.80;;;19.80;99.90;;;20.14;52.46;100936.44;4944023;28;96829;-72
2022/06/07 03:19:52;;;;;;;0.97;0.97;;;19.90;99.90;;;20.15;52.29;100935.47;4942698;28;97709;-72
2022/06/07 03:22:19;;;;;;;3.60;1.60;;;19.90;99.90;;;20.17;51.97;100936.22;4946443;28;98986;-72
2022/06/07 03:24:45;;;;;;;1.20;0.90;;;19.90;99.90;;;20.18;52.21;100930.75;4941298;28;97610;-72
2022/06/07 03:27:12;;;;;;;1.20;0.97;;;19.90;99.90;;;20.21;52.55;100935.88;4960436;28;97233;-72
2022/06/07 03:29:38;;;;;;;1.33;1.23;;;20.00;99.90;;;20.24;52.26;100934.78;4949447;28;97011;-72
2022/06/07 03:32:06;;;;;;;1.20;0.93;;;20.10;99.90;;;20.25;52.29;100941.88;4940104;28;97378;-72
2022/06/07 03:34:33;;;;;;;0.80;0.80;;;20.10;99.90;;;20.27;52.18;100929.25;4956604;28;98262;-72
2022/06/07 03:36:59;;;;;;;1.50;0.87;;;20.10;99.90;;;20.32;52.23;100939.63;4938179;28;96792;-73
2022/06/07 03:39:25;;;;;;;1.80;1.07;;;20.20;99.90;;;20.31;51.99;100941.44;4937378;28;97039;-72
2022/06/07 03:41:51;;;;;;;0.90;0.70;;;20.10;99.90;;;20.34;52.13;100938.53;4954648;28;113471;-72
2022/06/07 03:44:17;;;;;;;0.97;0.90;;;20.20;99.90;;;20.33;52.00;100939.50;4934640;28;97414;-72
2022/06/07 03:46:45;;;;;;;1.33;1.10;;;20.10;99.90;;;20.35;51.87;100947.44;4954623;28;97329;-72
2022/06/07 03:49:12;;;;;;;0.73;0.70;;;20.10;99.90;;;20.34;52.13;100941.22;4938624;28;96816;-72
2022/06/07 03:51:39;;;;;;;1.10;1.00;;;20.10;99.90;;;20.33;51.95;100947.53;4944328;28;98676;-72
2022/06/07 03:54:05;;;;;;;1.30;1.20;;;20.20;99.90;;;20.33;51.79;100944.88;4941950;28;97538;-72
2022/06/07 03:56:32;;;;;;;0.87;0.70;;;20.10;99.90;;;20.34;51.96;100951.06;4926585;28;97307;-72
2022/06/07 03:58:59;;;;;;;0.87;0.87;;;20.10;99.90;;;20.34;52.11;100943.91;4939442;28;97475;-73
2022/06/07 04:01:27;;;;;;;1.07;1.00;;;20.10;99.90;;;20.34;52.10;100946.56;4959335;28;97652;-72
2022/06/07 04:03:56;;;;;;;1.23;0.90;;;20.10;99.90;;;20.35;51.83;100953.63;4937646;28;97389;-72
2022/06/07 04:06:33;;;;;;;0.70;0.70;;;20.10;99.90;;;20.36;51.83;100944.63;4919612;28;97224;-72
2022/06/07 04:08:59;;;;;;;1.17;1.00;;;20.20;99.90;;;20.34;51.98;100949.25;4954033;28;97385;-73
2022/06/07 04:11:28;;;;;;;1.17;0.90;;;20.20;99.90;;;20.30;52.22;100955.81;4957880;28;97451;-72
2022/06/07 04:13:56;;;;;;;1.60;1.13;;;20.10;99.90;;;20.29;52.09;100948.75;4941153;28;98403;-72
2022/06/07 04:16:25;;;;;;;1.63;1.53;;;20.00;99.90;;;20.29;51.88;100948.75;4937627;28;98599;-72
2022/06/07 04:18:53;;;;;;;1.10;1.00;;;20.10;99.90;;;20.26;52.26;100948.97;4942022;28;96992;-72
2022/06/07 04:21:20;;;;;;;1.67;1.30;;;20.00;99.90;;;20.26;51.96;100953.47;4956241;28;97795;-72
2022/06/07 04:23:47;;;;;;;1.07;0.93;;;20.00;99.90;;;20.20;52.30;100955.59;4923192;28;96998;-72
2022/06/07 04:26:17;;;;;;;1.10;1.00;;;19.90;99.90;;;20.17;52.42;100954.97;4949213;28;98179;-72
2022/06/07 04:28:43;;;;;;;1.27;1.17;;;19.90;99.90;;;20.14;52.49;100955.19;4941031;28;97102;-72
2022/06/07 04:31:19;;;;;;;1.97;1.60;;;19.80;99.90;;;20.16;52.05;100947.91;4916781;28;99065;-72
2022/06/07 04:33:45;;;;;;;1.23;1.00;;;19.80;99.90;;;20.16;52.51;100953.25;4942132;28;99762;-72
2022/06/07 04:36:18;;;;;;;1.70;1.10;;;19.90;99.90;;;20.18;52.40;100951.31;4955976;28;96744;-72
2022/06/07 04:38:46;;;;;;;3.43;2.10;;;19.90;99.90;;;20.14;52.34;100955.19;4965291;28;96707;-72
2022/06/07 04:41:15;;;;;;;5.10;2.40;;;19.90;99.90;;;20.12;52.25;100957.13;4931159;28;99651;-72
2022/06/07 04:43:41;;;;;;;2.10;1.20;;;19.80;99.90;;;20.08;52.45;100950.25;4941255;28;97252;-72
2022/06/07 04:46:15;;;;;;;2.70;1.37;;;19.70;99.90;;;20.02;51.60;100956.91;4951535;28;97885;-72
2022/06/07 04:48:44;;;;;;;3.60;2.20;;;19.70;99.90;;;19.98;52.21;100958.09;4944926;28;97004;-72
2022/06/07 04:51:17;;;;;;;4.30;1.87;;;19.60;99.90;;;19.95;52.60;100952.06;4926977;28;99611;-72
2022/06/07 04:53:44;;;;;;;2.50;1.40;;;19.50;99.90;;;19.92;51.74;100955.81;4934201;28;97978;-72
2022/06/07 04:56:18;;;;;;;1.90;1.50;;;19.50;99.90;;;19.94;52.38;100951.22;4940189;28;97288;-72
2022/06/07 04:58:44;;;;;;;2.60;1.47;;;19.60;99.90;;;19.99;53.06;100957.13;4944891;28;97096;-72
2022/06/07 05:01:39;;;;;;;3.17;1.80;;;19.70;99.90;;;20.02;52.82;100954.22;4919139;28;99452;-72
2022/06/07 05:04:06;;;;;;;3.83;1.77;;;19.70;99.90;;;20.00;52.74;100958.84;4936460;28;97107;-72
2022/06/07 05:06:38;;;;;;;4.70;2.10;;;19.80;99.90;;;20.01;51.98;100959.69;4941213;28;102411;-72
2022/06/07 05:09:13;;;;;;;5.27;1.97;;;19.70;99.90;;;19.99;52.69;100950.91;4937143;28;97704;-72
2022/06/07 05:11:39;;;;;;;2.33;1.27;;;19.70;99.90;;;19.99;52.52;100945.56;4944315;28;98250;-72
2022/06/07 05:14:07;;;;;;;2.67;1.43;;;19.80;99.90;;;19.97;51.69;100958.22;4937059;28;119100;-72
2022/06/07 05:16:38;;;;;;;2.77;1.80;;;19.80;99.90;;;20.01;48.46;100955.19;4920668;28;98934;-72
2022/06/07 05:19:04;;;;;;;6.80;1.97;;;19.80;99.80;;;19.99;51.91;100956.28;4954264;28;96872;-72
2022/06/07 05:21:30;;;;;;;3.47;1.60;;;19.70;99.90;;;19.87;50.61;100958.84;4958687;28;98833;-72
2022/06/07 05:23:56;;;;;;;1.00;1.00;;;19.60;99.60;;;19.95;52.56;100957.44;4958677;28;97280;-72
2022/06/07 05:26:51;;;;;;;3.30;1.70;;;19.70;99.90;;;19.89;47.89;100962.25;4953170;28;97628;-72
2022/06/07 05:29:28;;;;;;;2.37;1.50;;;19.70;99.20;;;20.00;52.79;100966.00;4939284;28;104579;-72
2022/06/07 05:31:55;;;;;;;1.40;1.07;;;19.80;99.90;;;20.01;51.17;100965.03;4940739;28;97345;-72
2022/06/07 05:34:21;;;;;;;2.93;1.40;;;19.80;99.90;;;20.03;51.02;100965.78;4934103;28;97875;-72
2022/06/07 05:36:47;;;;;;;2.43;1.70;;;19.90;99.80;;;20.07;51.85;100969.97;4955820;28;101525;-72
2022/06/07 05:39:23;;;;;;;3.97;1.70;;;19.90;99.90;;;20.14;50.54;100968.56;4933304;28;103355;-72
2022/06/07 05:41:51;;;;;;;3.53;1.80;;;19.90;99.80;;;20.14;52.03;100969.44;4915824;28;99605;-72
2022/06/07 05:44:18;;;;;;;1.33;1.20;;;19.90;99.90;;;20.18;51.96;100973.59;4952439;28;96918;-72
2022/06/07 05:46:45;;;;;;;2.47;1.30;;;20.10;99.90;;;20.21;49.84;100981.41;4944717;28;97154;-72
2022/06/07 05:49:11;;;;;;;1.33;1.17;;;20.10;99.70;;;20.19;51.70;100978.00;4934230;28;98947;-72
2022/06/07 05:51:38;;;;;;;3.00;1.37;;;20.00;99.90;;;20.14;46.83;100979.28;4941565;28;98331;-72
2022/06/07 05:54:07;;;;;;;2.07;1.20;;;20.00;98.40;;;20.20;51.53;100984.19;4938857;28;97065;-73
2022/06/07 05:56:33;;;;;;;3.87;1.43;;;20.00;99.90;;;20.16;49.87;100974.69;4958671;28;98352;-72
2022/06/07 05:58:59;;;;;;;3.70;1.40;;;20.00;99.00;;;20.19;51.86;100980.66;4938877;28;96908;-73
2022/06/07 06:01:26;;;;;;;2.87;1.60;;;20.00;99.90;;;20.15;49.34;100971.16;4954486;28;97415;-72
2022/06/07 06:03:55;;;;;;;1.37;1.00;;;20.00;99.20;;;20.16;50.58;100980.88;4949378;28;97069;-73
2022/06/07 06:06:21;;;;;;;3.13;1.67;;;19.90;99.90;;;20.16;51.56;100978.22;4954108;28;96942;-72
2022/06/07 06:11:33;;;;;;;2.63;1.47;;;20.00;99.90;;;20.06;46.13;100973.59;4941227;28;101552;-72
2022/06/07 06:13:59;;;;;;;2.43;1.23;;;19.80;97.80;;;20.07;51.90;100986.03;4921452;28;97208;-72
2022/06/07 06:16:25;;;;;;;2.67;1.23;;;19.80;99.90;;;20.10;48.50;100975.94;4960785;28;97127;-72
2022/06/07 06:18:55;;;;;;;2.40;1.30;;;19.90;99.30;;;20.06;51.00;100978.97;4963141;28;97351;-72
2022/06/07 06:21:25;;;;;;;2.40;1.33;;;19.80;99.90;;;20.06;50.50;100979.81;4958607;28;97379;-72
2022/06/07 06:23:51;;;;;;;2.23;1.33;;;19.80;99.80;;;20.12;51.90;100978.53;4952580;28;97452;-72
2022/06/07 06:26:19;;;;;;;3.10;1.40;;;19.90;99.90;;;20.11;50.85;100976.84;4953865;28;96968;-73
2022/06/07 06:28:46;;;;;;;5.57;1.90;;;20.00;99.90;;;20.17;50.77;100976.38;4939910;28;97445;-73
2022/06/07 06:31:13;;;;;;;2.30;1.33;;;20.00;99.90;;;20.22;51.59;100971.56;4939185;28;99077;-73
2022/06/07 06:33:44;;;;;;;3.13;1.70;;;20.10;99.90;;;20.20;50.18;100974.34;4946525;28;96973;-73
2022/06/07 06:36:13;;;;;;;4.07;1.50;;;20.10;99.60;;;20.18;47.39;100967.38;4935736;28;97218;-73
2022/06/07 06:38:39;;;;;;;1.57;0.90;;;20.10;98.60;;;20.15;50.79;100962.25;4944010;28;97504;-73
2022/06/07 06:41:30;;;;;;;2.80;1.27;;;20.00;99.90;;;20.11;46.50;100960.78;4939350;28;96966;-73
2022/06/07 06:44:00;;;;;;;2.63;1.30;;;19.90;98.30;;;20.13;50.86;100967.72;4960019;28;97056;-73
2022/06/07 06:46:31;;;;;;;2.00;1.00;;;19.90;99.90;;;20.13;51.38;100962.38;4940328;28;97082;-73
2022/06/07 06:48:57;;;;;;;3.23;1.27;;;19.90;99.90;;;20.18;51.52;100968.25;4957069;28;96668;-75
2022/06/07 06:51:27;;;;;;;1.30;0.80;;;20.00;99.90;;;20.24;50.06;100966.09;4940959;28;102166;-72
2022/06/07 06:53:55;;;;;;;2.83;0.97;;;20.10;99.50;;;20.24;51.25;100966.09;4939146;28;97542;-72
2022/06/07 06:56:22;;;;;;;1.60;1.03;;;20.10;99.90;;;20.30;46.86;100966.53;4940034;28;96833;-73
2022/06/07 06:58:50;;;;;;;4.17;1.20;;;20.20;98.00;;;20.33;50.34;100968.97;4942780;28;97022;-72
2022/06/07 07:01:21;;;;;;;2.27;1.10;;;20.20;99.90;;;20.31;47.93;100967.38;4930916;28;100553;-72
2022/06/07 07:03:47;;;;;;;1.40;0.87;;;20.30;98.00;;;20.35;50.67;100968.84;4927467;28;99430;-72
2022/06/07 07:06:15;;;;;;;2.07;1.03;;;20.30;99.90;;;20.40;50.08;100972.09;4953813;28;97365;-72
2022/06/07 07:08:43;;;;;;;2.40;1.23;;;20.40;99.90;;;20.39;49.25;100979.25;4956414;28;97486;-72
2022/06/07 07:11:20;;;;;;;2.03;1.10;;;20.40;99.20;;;20.48;50.92;100975.94;4944996;28;97696;-72
2022/06/07 07:13:49;;;;;;;1.70;0.80;;;20.50;99.90;;;20.49;47.28;100966.94;4943158;28;96810;-72
2022/06/07 07:16:18;;;;;;;2.17;1.27;;;20.40;97.80;;;20.47;50.39;100968.88;4940729;28;97525;-72
2022/06/07 07:18:46;;;;;;;3.30;1.07;;;20.40;99.90;;;20.50;50.20;100968.66;4962585;28;97021;-72
2022/06/07 07:21:16;;;;;;;2.63;1.00;;;20.40;99.90;;;20.53;50.22;100966.72;4931832;28;98038;-72
2022/06/07 07:23:43;;;;;;;3.90;1.13;;;20.50;99.90;;;20.55;47.14;100967.47;4954072;28;99176;-72
2022/06/07 07:26:22;;;;;;;2.57;1.00;;;20.50;98.20;;;20.49;46.82;100968.75;4932987;28;97253;-72
2022/06/07 07:28:49;;;;;;;2.70;1.00;;;20.40;97.20;;;20.43;49.20;100964.72;4963663;28;97293;-72
2022/06/07 07:31:21;;;;;;;2.27;1.10;;;20.30;99.30;;;20.48;49.77;100967.91;4938785;28;97706;-72
2022/06/07 07:33:48;;;;;;;2.07;1.20;;;20.40;99.70;;;20.48;49.69;100957.19;4943416;28;99094;-72
2022/06/07 07:36:14;;;;;;;4.17;1.00;;;20.50;99.90;;;20.50;50.00;100968.66;4939586;28;97417;-72
2022/06/07 07:38:41;;;;;;;2.90;1.10;;;20.50;99.90;;;20.54;49.18;100971.94;4943148;28;97231;-71
2022/06/07 07:41:32;;;;;;;1.90;1.03;;;20.50;98.70;;;20.59;49.36;100966.28;4948487;28;97520;-72
2022/06/07 07:44:01;;;;;;;1.60;0.97;;;20.50;99.80;;;20.59;49.70;100966.28;4960285;28;97035;-73
2022/06/07 07:46:31;;;;;;;1.90;0.90;;;20.60;99.50;;;20.58;49.90;100967.25;4948759;28;97214;-71
2022/06/07 07:48:57;;;;;;;3.67;1.20;;;20.60;99.90;;;20.61;49.87;100964.34;4945045;28;97350;-71
2022/06/07 07:51:33;;;;;;;1.60;0.97;;;20.60;99.90;;;20.60;48.76;100973.34;4957255;28;102947;-71
2022/06/07 07:54:02;;;;;;;3.77;1.13;;;20.60;98.90;;;20.62;47.46;100966.06;4936957;28;97002;-72
2022/06/07 07:56:29;;;;;;;2.67;1.20;;;20.60;98.10;;;20.62;45.93;100966.91;4943395;28;99165;-71
2022/06/07 07:58:57;;;;;;;2.07;1.00;;;20.60;97.30;;;20.64;48.35;100959.59;4958477;28;96887;-71
2022/06/07 08:01:26;;;;;;;1.83;1.10;;;20.60;98.20;;;20.62;49.79;100960.69;4936302;28;104756;-71
2022/06/07 08:03:57;;;;;;;2.53;1.03;;;20.60;99.40;;;20.62;48.95;100960.69;4954321;28;98755;-71
2022/06/07 08:06:25;;;;;;;1.97;1.20;;;20.60;99.40;;;20.66;48.45;100957.66;4938685;28;97448;-72
2022/06/07 08:08:54;;;;;;;5.03;1.17;;;20.60;98.00;;;20.64;48.24;100964.09;4931642;28;97195;-71
2022/06/07 08:11:24;;;;;;;2.30;0.80;;;20.60;98.80;;;20.66;49.61;100962.16;4956731;28;98666;-71
2022/06/07 08:13:50;;;;;;;3.10;1.23;;;20.70;99.50;;;20.66;45.66;100967.53;4942025;28;97684;-71
2022/06/07 08:16:17;;;;;;;2.33;0.97;;;20.60;96.90;;;20.67;46.21;100964.72;4938818;28;97466;-72
2022/06/07 08:18:45;;;;;;;1.67;0.70;;;20.60;97.20;;;20.64;47.76;100964.09;4947570;28;97449;-71
2022/06/07 08:21:22;;;;;;;2.37;1.03;;;20.60;98.30;;;20.56;48.84;100956.66;4931452;28;100437;-71
2022/06/07 08:23:54;;;;;;;2.87;1.23;;;20.60;98.20;;;20.64;46.33;100948.88;4960834;28;97264;-71
2022/06/07 08:26:22;;;;;;;1.70;0.87;;;20.60;97.30;;;20.63;48.11;100954.38;4931424;28;97181;-71
2022/06/07 08:28:48;;;;;;;3.53;1.00;;;20.60;98.60;;;20.54;48.54;100949.66;4969104;28;96849;-71
2022/06/07 08:31:19;;;;;;;4.53;1.30;;;20.60;98.50;;;20.61;47.93;100958.97;4945898;28;99504;-71
2022/06/07 08:39:14;;;;;;;1.70;1.10;;;20.60;99.40;;;20.64;46.30;100951.56;4955263;28;97302;-71
2022/06/07 08:41:56;;;;;;;7.00;1.53;;;20.70;97.40;;;20.65;45.78;100949.75;4959132;28;97552;-71
2022/06/07 08:44:44;;;;;;;1.93;1.20;;;20.60;96.80;;;20.70;48.95;100952.97;4944601;28;103456;-72
2022/06/07 08:47:34;;;;;;;2.33;1.10;;;20.60;98.60;;;20.72;48.78;100945.66;4938756;28;97583;-71
2022/06/07 08:50:12;;;;;;;2.57;1.10;;;20.70;98.50;;;20.68;47.35;100950.38;4940034;28;97320;-72
2022/06/07 08:52:38;;;;;;;2.67;1.10;;;20.70;98.60;;;20.64;47.51;100942.66;4941305;28;100807;-71
2022/06/07 08:55:22;;;;;;;3.90;1.20;;;20.60;97.90;;;20.66;48.92;100956.81;4933933;28;99662;-72
2022/06/07 08:57:58;;;;;;;6.37;1.47;;;20.70;99.30;;;20.73;49.41;100950.06;4947905;28;98042;-71
2022/06/07 09:00:35;;;;;;;5.33;1.50;;;20.70;99.30;;;20.74;48.36;100949.06;4916620;28;97254;-71
2022/06/07 09:03:12;;;;;;;3.13;1.37;;;20.70;98.50;;;20.69;49.21;100949.44;4935225;28;97397;-71
2022/06/07 09:05:38;;;;;;;3.40;1.30;;;20.70;98.80;;;20.71;47.28;100949.31;4947350;28;97604;-71
2022/06/07 09:08:05;;;;;;;3.07;1.30;;;20.70;97.90;;;20.65;48.93;100949.75;4956313;28;96763;-72
2022/06/07 09:13:23;;;;;;;4.47;1.53;;;20.70;98.80;;;20.74;48.77;100938.34;4936159;28;97561;-71
2022/06/07 09:15:58;;;;;;;5.20;1.60;;;20.80;98.60;;;20.79;47.35;100946.91;4938513;28;98181;-72
2022/06/07 09:18:29;;;;;;;4.83;1.40;;;20.80;98.10;;;20.80;49.21;100943.25;4944654;28;97523;-72
2022/06/07 09:21:05;;;;;;;3.53;1.30;;;20.80;99.30;;;20.73;48.67;100942.00;4943011;28;96835;-72
2022/06/07 09:23:43;;;;;;;3.23;1.70;;;20.80;98.70;;;20.78;48.87;100940.69;4941193;28;100163;-72
2022/06/07 09:26:31;;;;;;;3.77;1.57;;;20.80;98.90;;;20.77;47.91;100936.28;4947512;28;103901;-72
2022/06/07 09:29:10;;;;;;;6.03;1.77;;;20.80;98.40;;;20.76;48.92;100933.72;4943591;28;97000;-72
2022/06/07 09:31:41;;;;;;;2.33;1.40;;;20.80;99.00;;;20.78;48.78;100934.47;4950950;28;97315;-72
2022/06/07 09:34:17;;;;;;;2.33;1.43;;;20.80;98.70;;;20.77;49.29;100930.09;4949518;28;97797;-73
2022/06/07 09:36:47;;;;;;;2.97;1.23;;;20.80;98.70;;;20.75;49.41;100923.97;4938963;28;97223;-72
2022/06/07 09:39:20;;;;;;;2.97;1.20;;;20.80;99.20;;;20.84;49.50;100928.69;4928102;28;98828;-73
2022/06/07 09:41:53;;;;;;;2.60;1.30;;;20.80;99.30;;;20.87;48.27;100922.22;4939644;28;96967;-73
2022/06/07 09:44:29;;;;;;;3.07;1.13;;;20.90;98.70;;;20.89;48.62;100925.66;4933366;28;98560;-73
2022/06/07 09:47:15;;;;;;;5.27;1.40;;;20.90;99.00;;;20.90;48.80;100933.56;4941135;28;98144;-73
2022/06/07 09:49:50;;;;;;;2.33;1.20;;;20.90;98.70;;;20.86;48.73;100924.06;4927425;28;97216;-73
2022/06/07 09:52:21;;;;;;;1.87;1.20;;;20.90;98.90;;;20.90;48.75;100917.47;4929873;28;96809;-73
2022/06/07 09:54:51;;;;;;;5.67;1.30;;;20.90;98.70;;;20.89;49.10;100931.00;4957593;28;96947;-73
2022/06/07 09:57:41;;;;;;;4.77;1.40;;;20.90;99.00;;;20.94;48.77;100918.97;4938092;28;99177;-73
2022/06/07 10:00:17;;;;;;;2.60;1.27;;;20.90;98.50;;;20.88;48.88;100918.56;4936173;28;97088;-73
2022/06/07 10:03:11;;;;;;;3.50;1.30;;;20.90;98.80;;;20.96;48.23;100911.66;4940018;28;97232;-73
2022/06/07 10:05:41;;;;;;;2.83;1.07;;;20.90;98.50;;;20.96;48.50;100911.66;4951772;28;101727;-73
2022/06/07 10:08:26;;;;;;;2.80;1.33;;;21.00;98.70;;;21.02;49.07;100908.53;4937375;28;97256;-72
2022/06/07 10:11:28;;;;;;;3.40;1.23;;;21.00;99.00;;;21.04;48.75;100909.25;4941052;28;96864;-72
2022/06/07 10:14:54;;;;;;;3.67;1.40;;;21.00;98.70;;;21.02;48.53;100900.47;4936254;28;96987;-72
2022/06/07 10:17:33;;;;;;;4.77;1.10;;;21.00;98.60;;;21.04;47.97;100895.84;4914737;28;101616;-72
2022/06/07 10:20:55;;;;;;;3.67;1.10;;;21.00;98.40;;;21.06;48.56;100891.22;4933313;28;98270;-74
2022/06/07 10:24:18;;;;;;;5.00;1.43;;;21.10;98.60;;;21.12;48.70;100889.91;4922526;28;96976;-72
2022/06/07 10:27:19;;;;;;;4.17;1.40;;;21.10;99.00;;;21.08;48.70;100894.63;4889171;28;97287;-72
2022/06/07 10:30:23;;;;;;;1.93;1.00;;;21.20;98.60;;;20.92;47.50;100888.72;4929851;28;100389;-72
2022/06/07 10:33:01;;;;;;;4.17;0.93;;;21.10;97.80;;;20.82;47.04;100885.00;4950447;28;101160;-72
2022/06/07 10:35:42;;;;;;;3.73;0.80;;;21.00;97.40;;;20.85;47.93;100882.13;4952119;28;96611;-72
2022/06/07 10:38:41;;;;;;;2.90;1.13;;;21.00;98.10;;;20.95;48.57;100882.28;4937900;28;96928;-72
2022/06/07 10:41:41;;;;;;;2.27;0.73;;;21.00;98.50;;;21.04;47.19;100879.75;4938184;28;97508;-72
2022/06/07 10:44:35;;;;;;;3.93;1.07;;;21.10;98.50;;;21.07;48.11;100879.53;4936030;28;98517;-72
2022/06/07 10:48:15;;;;;;;0.83;0.60;;;21.20;98.20;;;21.12;47.94;100872.94;4943591;28;96620;-73